Gordon Heights, New York
Current Conditions -  °F | °C
As of 1:56 PM on Friday 31 Oct 2014 (Local Time) from KHWV Reporting Station
Few Clouds Few Clouds  
Wind Chill: 13°   Ceiling: Unl
Heat Index: 13°   Visibility: 10mi
Dew Point:   Wind: 7mph
Humidity: 64%   Direction: 20°NNE
Pressure: 29.92"   Gusts: NA
Location:  40.8228°N, 72.9822°W
Report Text: KHWV 311756Z AUTO 02006KT 10SM FEW027 13/07 A2992 RMK AO2 SLP131 T01330067 10139 20072 58025 TSNO
Loading
Personal Weather Stations






























Interactive Weather Map
Tropical Storm Tracking
New forecast layout! Learn more

10-Day Weather Forecast

Advertisements
Track Severe Weather on mobile